createdAt,value
2023-05-06T00:01:24.363Z,13.21
2023-05-06T00:04:45.702Z,13.16
2023-05-06T00:08:08.526Z,13.15
2023-05-06T00:11:29.918Z,13.13
2023-05-06T00:14:51.615Z,13.07
2023-05-06T00:18:15.061Z,13.03
2023-05-06T00:21:36.733Z,13.00
2023-05-06T00:24:59.685Z,12.97
2023-05-06T00:28:21.030Z,12.94
2023-05-06T00:31:42.418Z,12.90
2023-05-06T00:35:04.389Z,12.83
2023-05-06T00:38:26.072Z,12.79
2023-05-06T00:41:49.083Z,12.69
2023-05-06T00:45:11.394Z,12.62
2023-05-06T00:48:33.360Z,12.55
2023-05-06T00:51:57.248Z,12.43
2023-05-06T00:55:19.084Z,12.41
2023-05-06T00:58:42.247Z,12.42
2023-05-06T01:02:04.444Z,12.32
2023-05-06T01:05:34.064Z,12.23
2023-05-06T01:09:01.932Z,12.18
2023-05-06T01:12:30.540Z,12.13
2023-05-06T01:15:56.471Z,12.01
2023-05-06T01:19:35.223Z,11.85
2023-05-06T01:22:57.117Z,11.75
2023-05-06T01:26:20.408Z,11.66
2023-05-06T01:29:44.205Z,11.50
2023-05-06T01:33:12.376Z,11.37
2023-05-06T01:36:40.013Z,11.31
2023-05-06T01:40:04.517Z,11.21
2023-05-06T01:43:32.280Z,11.07
2023-05-06T01:46:56.136Z,11.02
2023-05-06T01:50:17.948Z,10.99
2023-05-06T01:53:39.665Z,10.94
2023-05-06T01:57:02.141Z,10.81
2023-05-06T02:00:26.418Z,10.74
2023-05-06T02:03:48.131Z,10.71
2023-05-06T02:07:09.724Z,10.68
2023-05-06T02:10:31.471Z,10.67
2023-05-06T02:13:58.198Z,10.62
2023-05-06T02:17:21.447Z,10.50
2023-05-06T02:20:43.068Z,10.48
2023-05-06T02:24:09.476Z,10.39
2023-05-06T02:27:31.209Z,10.36
2023-05-06T02:30:56.975Z,10.31
2023-05-06T02:34:19.727Z,10.29
2023-05-06T02:37:40.953Z,10.26
2023-05-06T02:41:02.166Z,10.28
2023-05-06T02:44:23.315Z,10.26
2023-05-06T02:47:44.957Z,10.20
2023-05-06T02:51:08.148Z,10.16
2023-05-06T02:54:29.644Z,10.08
2023-05-06T02:57:51.325Z,10.05
2023-05-06T03:01:12.872Z,10.01
2023-05-06T03:04:34.805Z,9.97
2023-05-06T03:07:57.970Z,9.96
2023-05-06T03:11:19.505Z,9.96
2023-05-06T03:14:40.823Z,9.91
2023-05-06T03:18:02.688Z,9.87
2023-05-06T03:21:24.932Z,9.89
2023-05-06T03:24:49.265Z,9.88
2023-05-06T03:28:12.119Z,9.83
2023-05-06T03:31:35.343Z,9.83
2023-05-06T03:34:57.731Z,9.83
2023-05-06T03:38:19.460Z,9.81
2023-05-06T03:41:50.336Z,9.74
2023-05-06T03:45:13.175Z,9.67
2023-05-06T03:48:35.792Z,9.71
2023-05-06T03:52:00.555Z,9.72
2023-05-06T03:55:22.541Z,9.66
2023-05-06T03:58:45.964Z,9.63
2023-05-06T04:02:07.680Z,9.66
2023-05-06T04:05:31.315Z,9.62
2023-05-06T04:08:52.904Z,9.63
2023-05-06T04:12:14.717Z,9.65
2023-05-06T04:15:38.624Z,9.61
2023-05-06T04:19:05.736Z,9.59
2023-05-06T04:22:29.370Z,9.56
2023-05-06T04:25:51.326Z,9.55
2023-05-06T04:29:15.472Z,9.55
2023-05-06T04:32:50.777Z,9.55
2023-05-06T04:36:12.878Z,9.55
2023-05-06T04:39:40.223Z,9.51
2023-05-06T04:43:02.992Z,9.47
2023-05-06T04:46:26.121Z,9.41
2023-05-06T04:49:49.798Z,9.39
2023-05-06T04:53:11.620Z,9.38
2023-05-06T04:56:34.345Z,9.36
2023-05-06T04:59:55.790Z,9.36
2023-05-06T05:03:17.541Z,9.35
2023-05-06T05:06:40.465Z,9.35
2023-05-06T05:10:03.351Z,9.34
2023-05-06T05:13:25.924Z,9.33
2023-05-06T05:16:48.787Z,9.32
2023-05-06T05:20:11.189Z,9.34
2023-05-06T05:23:34.094Z,9.35
2023-05-06T05:26:55.968Z,9.37
2023-05-06T05:30:18.199Z,9.37
2023-05-06T05:33:39.380Z,9.40
2023-05-06T05:37:04.153Z,9.40
2023-05-06T05:40:29.132Z,9.41
2023-05-06T05:43:51.192Z,9.38
2023-05-06T05:47:13.794Z,9.40
2023-05-06T05:50:35.348Z,9.38
2023-05-06T05:53:57.063Z,9.35
2023-05-06T05:57:21.308Z,9.36
2023-05-06T06:00:42.720Z,9.35
2023-05-06T06:04:08.089Z,9.37
2023-05-06T06:07:29.608Z,9.36
2023-05-06T06:10:51.254Z,9.39
2023-05-06T06:14:17.738Z,9.41
2023-05-06T06:17:41.030Z,9.44
2023-05-06T06:21:02.758Z,9.46
2023-05-06T06:24:25.670Z,9.45
2023-05-06T06:27:47.302Z,9.47
2023-05-06T06:31:10.237Z,9.49
2023-05-06T06:34:31.828Z,9.49
2023-05-06T06:37:53.571Z,9.50
2023-05-06T06:41:15.257Z,9.51
2023-05-06T06:44:36.796Z,9.53
2023-05-06T06:47:59.596Z,9.55
2023-05-06T06:51:21.284Z,9.55
2023-05-06T06:54:42.961Z,9.56
2023-05-06T06:58:04.141Z,9.58
2023-05-06T07:01:25.416Z,9.60
2023-05-06T07:04:48.367Z,9.61
2023-05-06T07:08:09.622Z,9.59
2023-05-06T07:11:30.810Z,9.59
2023-05-06T07:14:51.990Z,9.56
2023-05-06T07:18:13.717Z,9.57
2023-05-06T07:21:36.758Z,9.60
2023-05-06T07:24:57.971Z,9.61
2023-05-06T07:28:19.189Z,9.61
2023-05-06T07:31:41.008Z,9.58
2023-05-06T07:35:02.814Z,9.55
2023-05-06T07:38:26.028Z,9.53
2023-05-06T07:41:47.211Z,9.51
2023-05-06T07:45:09.988Z,9.49
2023-05-06T07:48:32.644Z,9.47
2023-05-06T07:51:54.287Z,9.46
2023-05-06T07:55:17.044Z,9.46
2023-05-06T07:58:38.564Z,9.46
2023-05-06T08:02:00.264Z,9.51
2023-05-06T08:05:21.436Z,9.54
2023-05-06T08:08:42.920Z,9.57
2023-05-06T08:12:06.444Z,9.55
2023-05-06T08:15:27.932Z,9.50
2023-05-06T08:18:49.257Z,9.49
2023-05-06T08:22:10.492Z,9.51
2023-05-06T08:25:31.849Z,9.49
2023-05-06T08:28:56.203Z,9.54
2023-05-06T08:32:17.807Z,9.54
2023-05-06T08:35:39.430Z,9.52
2023-05-06T08:39:00.683Z,9.48
2023-05-06T08:42:24.091Z,9.46
2023-05-06T08:45:47.561Z,9.47
2023-05-06T08:49:08.868Z,9.50
2023-05-06T08:52:30.366Z,9.54
2023-05-06T08:55:55.350Z,9.56
2023-05-06T08:59:18.017Z,9.59
2023-05-06T09:02:43.151Z,9.55
2023-05-06T09:06:05.719Z,9.54
2023-05-06T09:09:27.243Z,9.49
2023-05-06T09:12:48.941Z,9.44
2023-05-06T09:16:10.592Z,9.46
2023-05-06T09:19:33.677Z,9.41
2023-05-06T09:22:54.953Z,9.49
2023-05-06T09:26:17.033Z,9.54
2023-05-06T09:29:38.578Z,9.55
2023-05-06T09:33:02.731Z,9.52
2023-05-06T09:36:27.474Z,9.58
2023-05-06T09:39:48.906Z,9.60
2023-05-06T09:43:10.665Z,9.65
2023-05-06T09:46:33.120Z,9.67
2023-05-06T09:49:58.308Z,9.65
2023-05-06T09:53:23.417Z,9.64
2023-05-06T09:56:46.491Z,9.61
2023-05-06T10:00:09.786Z,9.61
2023-05-06T10:03:35.868Z,9.59
2023-05-06T10:07:00.430Z,9.56
2023-05-06T10:10:25.588Z,9.56
2023-05-06T10:13:47.647Z,9.60
2023-05-06T10:17:10.784Z,9.61
2023-05-06T10:20:34.080Z,9.64
2023-05-06T10:24:01.025Z,9.61
2023-05-06T10:27:26.183Z,9.59
2023-05-06T10:30:50.565Z,9.55
2023-05-06T10:34:12.185Z,9.58
2023-05-06T10:37:36.047Z,9.61
2023-05-06T10:40:59.014Z,9.61
2023-05-06T10:45:03.805Z,9.59
2023-05-06T10:48:27.642Z,9.62
2023-05-06T10:51:49.959Z,9.60
2023-05-06T10:55:26.896Z,9.61
2023-05-06T10:58:49.313Z,9.60
2023-05-06T11:02:12.264Z,9.59
2023-05-06T11:05:37.208Z,9.56
2023-05-06T11:09:00.869Z,9.55
2023-05-06T11:12:22.668Z,9.58
2023-05-06T11:15:46.248Z,9.55
2023-05-06T11:19:09.324Z,9.56
2023-05-06T11:22:40.361Z,9.56
2023-05-06T11:26:02.777Z,9.59
2023-05-06T11:29:24.946Z,9.59
2023-05-06T11:32:47.835Z,9.56
2023-05-06T11:36:16.436Z,9.54
2023-05-06T11:39:40.723Z,9.53
2023-05-06T11:43:12.575Z,9.54
2023-05-06T11:46:35.457Z,9.55
2023-05-06T11:49:58.492Z,9.58
2023-05-06T11:53:23.141Z,9.62
2023-05-06T11:56:46.651Z,9.68
2023-05-06T12:00:10.741Z,9.70
2023-05-06T12:03:34.193Z,9.73
2023-05-06T12:06:57.286Z,9.76
2023-05-06T12:10:20.281Z,9.76
2023-05-06T12:13:43.879Z,9.78
2023-05-06T12:17:06.224Z,9.76
2023-05-06T12:20:27.749Z,9.84
2023-05-06T12:23:53.979Z,9.87
2023-05-06T12:27:29.967Z,9.96
2023-05-06T12:30:51.547Z,9.99
2023-05-06T12:34:13.503Z,10.07
2023-05-06T12:37:34.989Z,10.14
2023-05-06T12:40:56.877Z,10.14
2023-05-06T12:44:37.409Z,10.17
2023-05-06T12:48:00.278Z,10.16
2023-05-06T12:51:22.210Z,10.11
2023-05-06T12:54:43.823Z,10.13
2023-05-06T12:58:05.995Z,10.11
2023-05-06T13:01:29.241Z,10.06
2023-05-06T13:04:50.828Z,10.10
2023-05-06T13:08:12.786Z,10.09
2023-05-06T13:11:34.438Z,10.11
2023-05-06T13:14:56.084Z,10.11
2023-05-06T13:18:18.885Z,10.13
2023-05-06T13:21:42.556Z,10.15
2023-05-06T13:25:04.312Z,10.17
2023-05-06T13:28:25.810Z,10.19
2023-05-06T13:31:47.476Z,10.21
2023-05-06T13:35:11.395Z,10.23
2023-05-06T13:38:32.738Z,10.21
2023-05-06T13:41:54.239Z,10.21
2023-05-06T13:45:15.728Z,10.19
2023-05-06T13:48:37.053Z,10.19
2023-05-06T13:52:00.193Z,10.20
2023-05-06T13:55:21.760Z,10.25
2023-05-06T13:58:43.377Z,10.27
2023-05-06T14:02:08.068Z,10.30
2023-05-06T14:05:30.508Z,10.26
2023-05-06T14:08:52.925Z,10.26
2023-05-06T14:12:15.166Z,10.27
2023-05-06T14:15:36.823Z,10.32
2023-05-06T14:18:58.755Z,10.33
2023-05-06T14:22:21.372Z,10.31
2023-05-06T14:25:43.903Z,10.34
2023-05-06T14:29:05.271Z,10.34
2023-05-06T14:32:26.389Z,10.35
2023-05-06T14:35:49.279Z,10.35
2023-05-06T14:39:11.870Z,10.36
2023-05-06T14:42:35.775Z,10.36
2023-05-06T14:45:57.326Z,10.37
2023-05-06T14:49:18.851Z,10.35
2023-05-06T14:52:41.367Z,10.33
2023-05-06T14:56:02.865Z,10.33
2023-05-06T14:59:25.824Z,10.27
2023-05-06T15:02:47.449Z,10.24
2023-05-06T15:06:09.267Z,10.23
2023-05-06T15:09:31.094Z,10.23
2023-05-06T15:12:52.862Z,10.23
2023-05-06T15:16:15.897Z,10.23
2023-05-06T15:19:37.737Z,10.25
2023-05-06T15:22:59.586Z,10.22
2023-05-06T15:26:21.513Z,10.24
2023-05-06T15:29:43.095Z,10.22
2023-05-06T15:33:06.639Z,10.20
2023-05-06T15:36:28.612Z,10.20
2023-05-06T15:39:50.439Z,10.21
2023-05-06T15:43:13.853Z,10.20
2023-05-06T15:46:42.056Z,10.20
2023-05-06T15:50:16.553Z,10.21
2023-05-06T15:53:43.533Z,10.20
2023-05-06T15:57:07.137Z,10.21
2023-05-06T16:00:29.223Z,10.23
2023-05-06T16:03:51.440Z,10.25
2023-05-06T16:07:15.157Z,10.26
2023-05-06T16:10:36.831Z,10.27
2023-05-06T16:13:58.445Z,10.26
2023-05-06T16:17:19.940Z,10.26
2023-05-06T16:20:41.479Z,10.27
2023-05-06T16:24:04.568Z,10.24
2023-05-06T16:27:27.432Z,10.22
2023-05-06T16:30:48.786Z,10.23
2023-05-06T16:34:10.463Z,10.25
2023-05-06T16:37:31.650Z,10.23
2023-05-06T16:40:54.860Z,10.25
2023-05-06T16:44:16.040Z,10.25
2023-05-06T16:47:37.865Z,10.26
2023-05-06T16:50:59.901Z,10.27
2023-05-06T16:54:21.402Z,10.26
2023-05-06T16:57:44.756Z,10.28
2023-05-06T17:01:08.477Z,10.26
2023-05-06T17:04:29.874Z,10.27
2023-05-06T17:07:51.148Z,10.25
2023-05-06T17:11:12.631Z,10.25
2023-05-06T17:14:35.935Z,10.23
2023-05-06T17:17:57.737Z,10.25
2023-05-06T17:21:20.595Z,10.23
2023-05-06T17:24:43.748Z,10.21
2023-05-06T17:28:05.371Z,10.21
2023-05-06T17:31:28.533Z,10.23
2023-05-06T17:34:49.818Z,10.20
2023-05-06T17:38:12.829Z,10.19
2023-05-06T17:41:34.166Z,10.19
2023-05-06T17:44:56.029Z,10.15
2023-05-06T17:48:19.127Z,10.16
2023-05-06T17:51:40.932Z,10.16
2023-05-06T17:55:16.421Z,10.12
2023-05-06T17:58:38.987Z,10.10
2023-05-06T18:02:00.841Z,10.07
2023-05-06T18:05:25.561Z,10.04
2023-05-06T18:08:47.310Z,10.04
2023-05-06T18:12:09.316Z,10.02
2023-05-06T18:15:30.736Z,10.01
2023-05-06T18:18:52.416Z,10.03
2023-05-06T18:22:15.102Z,10.01
2023-05-06T18:25:36.560Z,10.01
2023-05-06T18:28:58.128Z,10.01
2023-05-06T18:32:19.527Z,10.01
2023-05-06T18:35:41.126Z,9.99
2023-05-06T18:39:04.512Z,9.96
2023-05-06T18:42:27.494Z,9.95
2023-05-06T18:45:49.269Z,9.95
2023-05-06T18:49:13.896Z,9.96
2023-05-06T18:52:35.986Z,9.94
2023-05-06T18:55:58.767Z,9.93
2023-05-06T18:59:21.256Z,9.92
2023-05-06T19:02:42.922Z,9.93
2023-05-06T19:06:08.022Z,9.94
2023-05-06T19:09:29.385Z,9.95
2023-05-06T19:12:52.372Z,9.94
2023-05-06T19:16:13.878Z,9.94
2023-05-06T19:19:35.044Z,9.92
2023-05-06T19:22:56.835Z,9.91
2023-05-06T19:26:18.029Z,9.90
2023-05-06T19:29:41.402Z,9.88
2023-05-06T19:33:03.694Z,9.87
2023-05-06T19:36:25.018Z,9.87
2023-05-06T19:39:47.580Z,9.87
2023-05-06T19:43:09.069Z,9.88
2023-05-06T19:46:32.325Z,9.88
2023-05-06T19:49:54.248Z,9.90
2023-05-06T19:53:17.659Z,9.93
2023-05-06T19:56:39.111Z,9.95
2023-05-06T20:00:00.404Z,9.96
2023-05-06T20:03:23.620Z,9.96
2023-05-06T20:06:45.476Z,9.95
2023-05-06T20:10:09.634Z,9.91
2023-05-06T20:13:31.307Z,9.93
2023-05-06T20:16:53.292Z,9.94
2023-05-06T20:20:16.031Z,9.94
2023-05-06T20:23:37.618Z,9.94
2023-05-06T20:26:59.314Z,9.95
2023-05-06T20:30:20.733Z,9.94
2023-05-06T20:33:42.492Z,9.95
2023-05-06T20:37:05.656Z,9.95
2023-05-06T20:40:27.125Z,9.94
2023-05-06T20:43:48.868Z,9.94
2023-05-06T20:47:12.472Z,9.91
2023-05-06T20:50:33.995Z,9.91
2023-05-06T20:53:58.930Z,9.91
2023-05-06T20:57:23.284Z,9.92
2023-05-06T21:00:44.747Z,9.93
2023-05-06T21:04:07.267Z,9.94
2023-05-06T21:07:28.785Z,9.95
2023-05-06T21:10:51.619Z,9.93
2023-05-06T21:14:13.313Z,9.94
2023-05-06T21:17:34.492Z,9.94
2023-05-06T21:20:55.955Z,9.96
2023-05-06T21:24:17.175Z,9.96
2023-05-06T21:27:40.355Z,9.95
2023-05-06T21:31:04.204Z,9.94
2023-05-06T21:34:26.545Z,9.95
2023-05-06T21:37:48.185Z,9.95
2023-05-06T21:41:10.108Z,9.97
2023-05-06T21:44:32.915Z,9.97
2023-05-06T21:47:54.120Z,10.00
2023-05-06T21:51:16.004Z,9.98
2023-05-06T21:54:37.659Z,9.97
2023-05-06T21:57:58.919Z,9.98
2023-05-06T22:01:21.478Z,9.97
2023-05-06T22:04:43.132Z,9.97
2023-05-06T22:08:04.271Z,9.96
2023-05-06T22:11:25.919Z,9.95
2023-05-06T22:14:47.218Z,9.95
2023-05-06T22:18:10.649Z,9.94
2023-05-06T22:21:32.351Z,9.92
2023-05-06T22:24:54.087Z,9.92
2023-05-06T22:28:16.468Z,9.89
2023-05-06T22:31:38.376Z,9.90
2023-05-06T22:35:01.591Z,9.91
2023-05-06T22:38:23.487Z,9.92
2023-05-06T22:41:45.624Z,9.92
2023-05-06T22:45:09.446Z,9.92
2023-05-06T22:48:31.661Z,9.92
2023-05-06T22:51:54.274Z,9.92
2023-05-06T22:55:16.056Z,9.94
2023-05-06T22:58:37.775Z,9.94
2023-05-06T23:01:59.510Z,9.95
2023-05-06T23:05:21.314Z,9.95
2023-05-06T23:08:44.014Z,9.95
2023-05-06T23:12:06.280Z,9.96
2023-05-06T23:15:28.040Z,9.94
2023-05-06T23:18:49.362Z,9.94
2023-05-06T23:26:02.824Z,9.96
2023-05-06T23:29:24.325Z,9.95
2023-05-06T23:32:46.265Z,9.95
2023-05-06T23:36:08.279Z,9.94
2023-05-06T23:39:29.461Z,9.91
2023-05-06T23:42:52.556Z,9.89
2023-05-06T23:46:14.042Z,9.88
2023-05-06T23:49:36.435Z,9.87
2023-05-06T23:52:58.051Z,9.88
2023-05-06T23:56:20.558Z,9.88
2023-05-06T23:59:43.533Z,9.89
